sensor_id;sensor_type;location;lat;lon;timestamp;P1;durP1;ratioP1;P2;durP2;ratioP2
40459;SDS011;26164;51.138;16.952;2022-12-18T00:01:22;74.90;;;21.20;;
40459;SDS011;26164;51.138;16.952;2022-12-18T00:03:55;65.53;;;20.60;;
40459;SDS011;26164;51.138;16.952;2022-12-18T00:06:29;68.97;;;19.83;;
40459;SDS011;26164;51.138;16.952;2022-12-18T00:08:57;51.33;;;16.73;;
40459;SDS011;26164;51.138;16.952;2022-12-18T00:11:27;59.00;;;16.13;;
40459;SDS011;26164;51.138;16.952;2022-12-18T00:13:55;62.42;;;19.50;;
40459;SDS011;26164;51.138;16.952;2022-12-18T00:16:23;62.63;;;18.45;;
40459;SDS011;26164;51.138;16.952;2022-12-18T00:18:52;60.90;;;19.35;;
40459;SDS011;26164;51.138;16.952;2022-12-18T00:21:27;65.63;;;19.08;;
40459;SDS011;26164;51.138;16.952;2022-12-18T00:23:59;64.00;;;18.92;;
40459;SDS011;26164;51.138;16.952;2022-12-18T00:26:28;58.00;;;16.65;;
40459;SDS011;26164;51.138;16.952;2022-12-18T00:29:00;63.78;;;19.23;;
40459;SDS011;26164;51.138;16.952;2022-12-18T00:31:30;67.70;;;19.88;;
40459;SDS011;26164;51.138;16.952;2022-12-18T00:33:56;66.50;;;19.73;;
40459;SDS011;26164;51.138;16.952;2022-12-18T00:36:25;67.30;;;19.98;;
40459;SDS011;26164;51.138;16.952;2022-12-18T00:38:53;67.05;;;20.65;;
40459;SDS011;26164;51.138;16.952;2022-12-18T00:41:23;78.32;;;22.45;;
40459;SDS011;26164;51.138;16.952;2022-12-18T00:44:09;66.00;;;19.92;;
40459;SDS011;26164;51.138;16.952;2022-12-18T00:46:38;64.90;;;19.55;;
40459;SDS011;26164;51.138;16.952;2022-12-18T00:49:04;68.50;;;19.83;;
40459;SDS011;26164;51.138;16.952;2022-12-18T00:51:31;69.03;;;21.35;;
40459;SDS011;26164;51.138;16.952;2022-12-18T00:53:57;71.72;;;20.55;;
40459;SDS011;26164;51.138;16.952;2022-12-18T00:56:24;73.47;;;20.92;;
40459;SDS011;26164;51.138;16.952;2022-12-18T00:58:50;68.47;;;19.58;;
40459;SDS011;26164;51.138;16.952;2022-12-18T01:01:17;67.93;;;19.20;;
40459;SDS011;26164;51.138;16.952;2022-12-18T01:03:43;70.22;;;21.77;;
40459;SDS011;26164;51.138;16.952;2022-12-18T01:06:13;67.90;;;20.90;;
40459;SDS011;26164;51.138;16.952;2022-12-18T01:08:40;71.70;;;18.98;;
40459;SDS011;26164;51.138;16.952;2022-12-18T01:11:11;73.50;;;20.80;;
40459;SDS011;26164;51.138;16.952;2022-12-18T01:13:42;72.40;;;21.27;;
40459;SDS011;26164;51.138;16.952;2022-12-18T01:16:10;69.15;;;20.35;;
40459;SDS011;26164;51.138;16.952;2022-12-18T01:18:37;65.25;;;20.17;;
40459;SDS011;26164;51.138;16.952;2022-12-18T01:21:08;55.53;;;17.58;;
40459;SDS011;26164;51.138;16.952;2022-12-18T01:23:36;49.85;;;15.75;;
40459;SDS011;26164;51.138;16.952;2022-12-18T01:26:05;61.60;;;19.05;;
40459;SDS011;26164;51.138;16.952;2022-12-18T01:28:39;48.20;;;15.10;;
40459;SDS011;26164;51.138;16.952;2022-12-18T01:33:40;57.33;;;19.10;;
40459;SDS011;26164;51.138;16.952;2022-12-18T01:36:06;57.45;;;17.05;;
40459;SDS011;26164;51.138;16.952;2022-12-18T01:38:33;56.28;;;18.13;;
40459;SDS011;26164;51.138;16.952;2022-12-18T01:41:01;63.10;;;18.48;;
40459;SDS011;26164;51.138;16.952;2022-12-18T01:43:50;63.67;;;19.25;;
40459;SDS011;26164;51.138;16.952;2022-12-18T01:46:21;58.00;;;18.73;;
40459;SDS011;26164;51.138;16.952;2022-12-18T01:48:49;57.72;;;18.83;;
40459;SDS011;26164;51.138;16.952;2022-12-18T01:51:28;58.45;;;18.83;;
40459;SDS011;26164;51.138;16.952;2022-12-18T01:53:57;52.72;;;17.65;;
40459;SDS011;26164;51.138;16.952;2022-12-18T01:56:25;69.13;;;18.65;;
40459;SDS011;26164;51.138;16.952;2022-12-18T01:58:56;64.00;;;19.83;;
40459;SDS011;26164;51.138;16.952;2022-12-18T02:01:31;57.88;;;19.25;;
40459;SDS011;26164;51.138;16.952;2022-12-18T02:04:21;53.47;;;17.40;;
40459;SDS011;26164;51.138;16.952;2022-12-18T02:06:56;67.82;;;19.58;;
40459;SDS011;26164;51.138;16.952;2022-12-18T02:09:44;61.95;;;18.20;;
40459;SDS011;26164;51.138;16.952;2022-12-18T02:12:25;58.90;;;18.70;;
40459;SDS011;26164;51.138;16.952;2022-12-18T02:15:16;53.72;;;17.67;;
40459;SDS011;26164;51.138;16.952;2022-12-18T02:17:49;61.70;;;18.42;;
40459;SDS011;26164;51.138;16.952;2022-12-18T02:28:55;54.78;;;18.27;;
40459;SDS011;26164;51.138;16.952;2022-12-18T02:31:39;49.97;;;16.85;;
40459;SDS011;26164;51.138;16.952;2022-12-18T02:34:10;56.67;;;17.38;;
40459;SDS011;26164;51.138;16.952;2022-12-18T02:36:40;49.45;;;15.38;;
40459;SDS011;26164;51.138;16.952;2022-12-18T02:39:10;57.00;;;17.42;;
40459;SDS011;26164;51.138;16.952;2022-12-18T02:41:46;54.28;;;16.15;;
40459;SDS011;26164;51.138;16.952;2022-12-18T02:44:13;53.58;;;17.65;;
40459;SDS011;26164;51.138;16.952;2022-12-18T02:46:45;47.67;;;14.43;;
40459;SDS011;26164;51.138;16.952;2022-12-18T02:57:33;59.45;;;17.00;;
40459;SDS011;26164;51.138;16.952;2022-12-18T03:00:15;50.95;;;18.15;;
40459;SDS011;26164;51.138;16.952;2022-12-18T03:05:28;48.50;;;16.67;;
40459;SDS011;26164;51.138;16.952;2022-12-18T03:08:05;62.80;;;19.10;;
40459;SDS011;26164;51.138;16.952;2022-12-18T03:10:45;60.90;;;19.85;;
40459;SDS011;26164;51.138;16.952;2022-12-18T03:13:44;58.20;;;17.67;;
40459;SDS011;26164;51.138;16.952;2022-12-18T03:16:19;67.40;;;18.73;;
40459;SDS011;26164;51.138;16.952;2022-12-18T03:19:06;57.97;;;18.20;;
40459;SDS011;26164;51.138;16.952;2022-12-18T03:21:42;58.85;;;19.55;;
40459;SDS011;26164;51.138;16.952;2022-12-18T03:24:15;51.70;;;17.67;;
40459;SDS011;26164;51.138;16.952;2022-12-18T03:26:44;55.78;;;18.80;;
40459;SDS011;26164;51.138;16.952;2022-12-18T03:29:18;62.88;;;20.27;;
40459;SDS011;26164;51.138;16.952;2022-12-18T03:34:19;51.58;;;17.60;;
40459;SDS011;26164;51.138;16.952;2022-12-18T03:36:53;46.38;;;16.05;;
40459;SDS011;26164;51.138;16.952;2022-12-18T03:39:23;57.03;;;18.45;;
40459;SDS011;26164;51.138;16.952;2022-12-18T03:42:00;47.00;;;16.20;;
40459;SDS011;26164;51.138;16.952;2022-12-18T03:44:35;53.17;;;17.83;;
40459;SDS011;26164;51.138;16.952;2022-12-18T03:47:28;54.15;;;16.17;;
40459;SDS011;26164;51.138;16.952;2022-12-18T03:50:10;62.40;;;18.95;;
40459;SDS011;26164;51.138;16.952;2022-12-18T03:53:00;59.38;;;17.83;;
40459;SDS011;26164;51.138;16.952;2022-12-18T03:55:45;51.72;;;17.13;;
40459;SDS011;26164;51.138;16.952;2022-12-18T03:58:15;52.13;;;17.33;;
40459;SDS011;26164;51.138;16.952;2022-12-18T04:00:55;59.70;;;19.25;;
40459;SDS011;26164;51.138;16.952;2022-12-18T04:03:25;59.40;;;17.98;;
40459;SDS011;26164;51.138;16.952;2022-12-18T04:05:56;58.95;;;19.42;;
40459;SDS011;26164;51.138;16.952;2022-12-18T04:08:26;57.22;;;19.42;;
40459;SDS011;26164;51.138;16.952;2022-12-18T04:11:02;52.40;;;17.67;;
40459;SDS011;26164;51.138;16.952;2022-12-18T04:13:29;57.70;;;19.50;;
40459;SDS011;26164;51.138;16.952;2022-12-18T04:16:02;58.45;;;18.92;;
40459;SDS011;26164;51.138;16.952;2022-12-18T04:18:28;52.90;;;17.67;;
40459;SDS011;26164;51.138;16.952;2022-12-18T04:20:55;56.33;;;18.42;;
40459;SDS011;26164;51.138;16.952;2022-12-18T04:23:21;56.58;;;17.65;;
40459;SDS011;26164;51.138;16.952;2022-12-18T04:25:48;55.72;;;17.80;;
40459;SDS011;26164;51.138;16.952;2022-12-18T04:28:21;52.40;;;19.13;;
40459;SDS011;26164;51.138;16.952;2022-12-18T04:30:47;58.08;;;17.92;;
40459;SDS011;26164;51.138;16.952;2022-12-18T04:33:13;56.15;;;18.92;;
40459;SDS011;26164;51.138;16.952;2022-12-18T04:35:40;60.10;;;19.23;;
40459;SDS011;26164;51.138;16.952;2022-12-18T04:38:07;64.00;;;19.20;;
40459;SDS011;26164;51.138;16.952;2022-12-18T04:40:36;54.78;;;18.48;;
40459;SDS011;26164;51.138;16.952;2022-12-18T04:43:08;62.65;;;18.73;;
40459;SDS011;26164;51.138;16.952;2022-12-18T04:45:35;56.25;;;17.65;;
40459;SDS011;26164;51.138;16.952;2022-12-18T04:48:01;51.20;;;17.05;;
40459;SDS011;26164;51.138;16.952;2022-12-18T04:50:28;59.92;;;17.95;;
40459;SDS011;26164;51.138;16.952;2022-12-18T04:52:55;54.08;;;19.52;;
40459;SDS011;26164;51.138;16.952;2022-12-18T04:55:25;56.58;;;18.15;;
40459;SDS011;26164;51.138;16.952;2022-12-18T04:57:52;48.97;;;18.40;;
40459;SDS011;26164;51.138;16.952;2022-12-18T05:00:19;58.53;;;18.15;;
40459;SDS011;26164;51.138;16.952;2022-12-18T05:02:45;51.75;;;18.15;;
40459;SDS011;26164;51.138;16.952;2022-12-18T05:05:11;55.35;;;17.85;;
40459;SDS011;26164;51.138;16.952;2022-12-18T05:07:37;55.35;;;16.63;;
40459;SDS011;26164;51.138;16.952;2022-12-18T05:10:03;51.10;;;16.90;;
40459;SDS011;26164;51.138;16.952;2022-12-18T05:12:32;55.90;;;18.50;;
40459;SDS011;26164;51.138;16.952;2022-12-18T05:14:59;60.30;;;18.23;;
40459;SDS011;26164;51.138;16.952;2022-12-18T05:17:24;53.90;;;18.95;;
40459;SDS011;26164;51.138;16.952;2022-12-18T05:19:50;53.05;;;18.48;;
40459;SDS011;26164;51.138;16.952;2022-12-18T05:22:16;52.50;;;17.80;;
40459;SDS011;26164;51.138;16.952;2022-12-18T05:24:42;52.05;;;17.98;;
40459;SDS011;26164;51.138;16.952;2022-12-18T05:27:08;54.90;;;18.27;;
40459;SDS011;26164;51.138;16.952;2022-12-18T05:29:34;60.97;;;19.48;;
40459;SDS011;26164;51.138;16.952;2022-12-18T05:32:00;55.83;;;19.40;;
40459;SDS011;26164;51.138;16.952;2022-12-18T05:34:26;57.92;;;19.15;;
40459;SDS011;26164;51.138;16.952;2022-12-18T05:36:54;53.97;;;17.90;;
40459;SDS011;26164;51.138;16.952;2022-12-18T05:39:20;54.80;;;18.88;;
40459;SDS011;26164;51.138;16.952;2022-12-18T05:41:46;51.88;;;18.02;;
40459;SDS011;26164;51.138;16.952;2022-12-18T05:44:12;51.75;;;17.98;;
40459;SDS011;26164;51.138;16.952;2022-12-18T05:46:40;56.38;;;17.67;;
40459;SDS011;26164;51.138;16.952;2022-12-18T05:49:06;46.28;;;17.05;;
40459;SDS011;26164;51.138;16.952;2022-12-18T05:51:32;44.83;;;16.58;;
40459;SDS011;26164;51.138;16.952;2022-12-18T05:53:58;46.60;;;16.85;;
40459;SDS011;26164;51.138;16.952;2022-12-18T05:56:27;41.08;;;17.00;;
40459;SDS011;26164;51.138;16.952;2022-12-18T05:58:57;45.15;;;17.48;;
40459;SDS011;26164;51.138;16.952;2022-12-18T06:01:51;47.08;;;17.63;;
40459;SDS011;26164;51.138;16.952;2022-12-18T06:04:24;51.38;;;18.73;;
40459;SDS011;26164;51.138;16.952;2022-12-18T06:07:13;55.50;;;19.50;;
40459;SDS011;26164;51.138;16.952;2022-12-18T06:09:51;57.30;;;19.35;;
40459;SDS011;26164;51.138;16.952;2022-12-18T06:12:21;54.38;;;19.48;;
40459;SDS011;26164;51.138;16.952;2022-12-18T06:14:47;51.20;;;18.90;;
40459;SDS011;26164;51.138;16.952;2022-12-18T06:17:12;57.30;;;21.15;;
40459;SDS011;26164;51.138;16.952;2022-12-18T06:19:40;58.03;;;21.42;;
40459;SDS011;26164;51.138;16.952;2022-12-18T06:22:05;54.72;;;20.35;;
40459;SDS011;26164;51.138;16.952;2022-12-18T06:24:31;53.70;;;22.05;;
40459;SDS011;26164;51.138;16.952;2022-12-18T06:26:58;62.88;;;21.30;;
40459;SDS011;26164;51.138;16.952;2022-12-18T06:29:24;62.75;;;22.73;;
40459;SDS011;26164;51.138;16.952;2022-12-18T06:31:49;63.10;;;21.90;;
40459;SDS011;26164;51.138;16.952;2022-12-18T06:34:15;63.42;;;23.02;;
40459;SDS011;26164;51.138;16.952;2022-12-18T06:36:41;67.13;;;22.80;;
40459;SDS011;26164;51.138;16.952;2022-12-18T06:39:07;60.58;;;21.48;;
40459;SDS011;26164;51.138;16.952;2022-12-18T06:41:33;68.55;;;24.58;;
40459;SDS011;26164;51.138;16.952;2022-12-18T06:43:59;70.00;;;25.10;;
40459;SDS011;26164;51.138;16.952;2022-12-18T06:46:24;65.97;;;22.98;;
40459;SDS011;26164;51.138;16.952;2022-12-18T06:48:51;66.32;;;23.77;;
40459;SDS011;26164;51.138;16.952;2022-12-18T06:51:20;67.40;;;24.63;;
40459;SDS011;26164;51.138;16.952;2022-12-18T06:53:47;72.28;;;23.50;;
40459;SDS011;26164;51.138;16.952;2022-12-18T06:56:14;64.72;;;23.30;;
40459;SDS011;26164;51.138;16.952;2022-12-18T06:58:40;69.78;;;23.63;;
40459;SDS011;26164;51.138;16.952;2022-12-18T07:01:07;68.45;;;25.15;;
40459;SDS011;26164;51.138;16.952;2022-12-18T07:03:35;72.70;;;25.70;;
40459;SDS011;26164;51.138;16.952;2022-12-18T07:06:02;70.38;;;25.15;;
40459;SDS011;26164;51.138;16.952;2022-12-18T07:08:37;75.47;;;24.77;;
40459;SDS011;26164;51.138;16.952;2022-12-18T07:11:19;65.43;;;22.05;;
40459;SDS011;26164;51.138;16.952;2022-12-18T07:14:00;73.53;;;24.42;;
40459;SDS011;26164;51.138;16.952;2022-12-18T07:16:42;74.55;;;25.48;;
40459;SDS011;26164;51.138;16.952;2022-12-18T07:19:08;74.68;;;26.98;;
40459;SDS011;26164;51.138;16.952;2022-12-18T07:21:33;79.47;;;27.80;;
40459;SDS011;26164;51.138;16.952;2022-12-18T07:23:59;79.80;;;27.25;;
40459;SDS011;26164;51.138;16.952;2022-12-18T07:26:29;73.55;;;26.23;;
40459;SDS011;26164;51.138;16.952;2022-12-18T07:28:55;79.75;;;26.77;;
40459;SDS011;26164;51.138;16.952;2022-12-18T07:31:23;76.80;;;27.48;;
40459;SDS011;26164;51.138;16.952;2022-12-18T07:33:49;79.82;;;26.33;;
40459;SDS011;26164;51.138;16.952;2022-12-18T07:36:16;73.88;;;26.60;;
40459;SDS011;26164;51.138;16.952;2022-12-18T07:38:42;74.55;;;26.83;;
40459;SDS011;26164;51.138;16.952;2022-12-18T07:41:10;69.85;;;25.65;;
40459;SDS011;26164;51.138;16.952;2022-12-18T07:43:38;77.97;;;25.83;;
40459;SDS011;26164;51.138;16.952;2022-12-18T07:46:05;68.97;;;24.77;;
40459;SDS011;26164;51.138;16.952;2022-12-18T07:48:31;66.97;;;25.95;;
40459;SDS011;26164;51.138;16.952;2022-12-18T07:50:59;64.07;;;22.27;;
40459;SDS011;26164;51.138;16.952;2022-12-18T07:57:53;55.25;;;22.40;;
40459;SDS011;26164;51.138;16.952;2022-12-18T08:01:07;51.55;;;20.83;;
40459;SDS011;26164;51.138;16.952;2022-12-18T08:03:35;53.17;;;21.90;;
40459;SDS011;26164;51.138;16.952;2022-12-18T08:06:03;54.78;;;21.02;;
40459;SDS011;26164;51.138;16.952;2022-12-18T08:08:33;54.78;;;22.02;;
40459;SDS011;26164;51.138;16.952;2022-12-18T08:10:59;55.75;;;21.85;;
40459;SDS011;26164;51.138;16.952;2022-12-18T08:13:26;52.22;;;20.63;;
40459;SDS011;26164;51.138;16.952;2022-12-18T08:15:59;54.53;;;23.20;;
40459;SDS011;26164;51.138;16.952;2022-12-18T08:20:54;55.65;;;21.77;;
40459;SDS011;26164;51.138;16.952;2022-12-18T08:23:21;55.78;;;22.27;;
40459;SDS011;26164;51.138;16.952;2022-12-18T08:25:47;54.40;;;21.67;;
40459;SDS011;26164;51.138;16.952;2022-12-18T08:28:13;62.47;;;23.90;;
40459;SDS011;26164;51.138;16.952;2022-12-18T08:30:39;61.88;;;22.52;;
40459;SDS011;26164;51.138;16.952;2022-12-18T08:33:05;57.70;;;22.40;;
40459;SDS011;26164;51.138;16.952;2022-12-18T08:35:34;62.97;;;23.23;;
40459;SDS011;26164;51.138;16.952;2022-12-18T08:38:01;66.28;;;24.08;;
40459;SDS011;26164;51.138;16.952;2022-12-18T08:40:27;58.40;;;23.48;;
40459;SDS011;26164;51.138;16.952;2022-12-18T08:42:53;61.35;;;22.58;;
40459;SDS011;26164;51.138;16.952;2022-12-18T08:45:37;58.47;;;22.40;;
40459;SDS011;26164;51.138;16.952;2022-12-18T08:48:03;53.42;;;22.45;;
40459;SDS011;26164;51.138;16.952;2022-12-18T08:50:29;53.10;;;21.75;;
40459;SDS011;26164;51.138;16.952;2022-12-18T08:55:50;57.95;;;22.27;;
40459;SDS011;26164;51.138;16.952;2022-12-18T08:58:18;53.75;;;21.05;;
40459;SDS011;26164;51.138;16.952;2022-12-18T09:00:44;55.20;;;22.17;;
40459;SDS011;26164;51.138;16.952;2022-12-18T09:03:13;51.95;;;21.90;;
40459;SDS011;26164;51.138;16.952;2022-12-18T09:05:47;52.45;;;20.58;;
40459;SDS011;26164;51.138;16.952;2022-12-18T09:08:13;58.50;;;21.67;;
40459;SDS011;26164;51.138;16.952;2022-12-18T09:10:43;58.90;;;22.17;;
40459;SDS011;26164;51.138;16.952;2022-12-18T09:13:14;57.45;;;21.00;;
40459;SDS011;26164;51.138;16.952;2022-12-18T09:15:41;54.90;;;21.05;;
40459;SDS011;26164;51.138;16.952;2022-12-18T09:18:08;65.63;;;22.90;;
40459;SDS011;26164;51.138;16.952;2022-12-18T09:20:36;59.63;;;22.35;;
40459;SDS011;26164;51.138;16.952;2022-12-18T09:23:02;37.53;;;12.35;;
40459;SDS011;26164;51.138;16.952;2022-12-18T09:25:29;50.15;;;20.05;;
40459;SDS011;26164;51.138;16.952;2022-12-18T09:27:59;60.58;;;22.70;;
40459;SDS011;26164;51.138;16.952;2022-12-18T09:30:26;51.90;;;21.17;;
40459;SDS011;26164;51.138;16.952;2022-12-18T09:32:52;57.58;;;22.85;;
40459;SDS011;26164;51.138;16.952;2022-12-18T09:35:18;52.33;;;21.08;;
40459;SDS011;26164;51.138;16.952;2022-12-18T09:37:43;53.75;;;21.40;;
40459;SDS011;26164;51.138;16.952;2022-12-18T09:40:20;61.47;;;24.30;;
40459;SDS011;26164;51.138;16.952;2022-12-18T09:42:50;55.63;;;22.38;;
40459;SDS011;26164;51.138;16.952;2022-12-18T09:45:20;60.35;;;23.60;;
40459;SDS011;26164;51.138;16.952;2022-12-18T09:47:48;57.75;;;21.50;;
40459;SDS011;26164;51.138;16.952;2022-12-18T09:52:53;58.15;;;21.02;;
40459;SDS011;26164;51.138;16.952;2022-12-18T09:55:39;60.95;;;23.15;;
40459;SDS011;26164;51.138;16.952;2022-12-18T09:58:13;47.83;;;19.90;;
40459;SDS011;26164;51.138;16.952;2022-12-18T10:00:43;52.20;;;20.23;;
40459;SDS011;26164;51.138;16.952;2022-12-18T10:03:13;62.05;;;23.60;;
40459;SDS011;26164;51.138;16.952;2022-12-18T10:05:43;53.63;;;20.00;;
40459;SDS011;26164;51.138;16.952;2022-12-18T10:10:57;45.97;;;18.83;;
40459;SDS011;26164;51.138;16.952;2022-12-18T10:13:31;51.80;;;19.77;;
40459;SDS011;26164;51.138;16.952;2022-12-18T10:16:22;59.35;;;22.27;;
40459;SDS011;26164;51.138;16.952;2022-12-18T10:24:32;57.55;;;22.92;;
40459;SDS011;26164;51.138;16.952;2022-12-18T10:27:09;57.22;;;22.10;;
40459;SDS011;26164;51.138;16.952;2022-12-18T10:29:41;60.17;;;22.10;;
40459;SDS011;26164;51.138;16.952;2022-12-18T10:32:19;61.00;;;23.15;;
40459;SDS011;26164;51.138;16.952;2022-12-18T10:34:47;56.70;;;21.50;;
40459;SDS011;26164;51.138;16.952;2022-12-18T10:37:19;61.90;;;22.30;;
40459;SDS011;26164;51.138;16.952;2022-12-18T10:40:04;59.20;;;21.75;;
40459;SDS011;26164;51.138;16.952;2022-12-18T10:42:31;61.63;;;22.77;;
40459;SDS011;26164;51.138;16.952;2022-12-18T10:45:08;73.97;;;26.33;;
40459;SDS011;26164;51.138;16.952;2022-12-18T10:47:37;60.75;;;23.35;;
40459;SDS011;26164;51.138;16.952;2022-12-18T10:50:17;64.35;;;21.85;;
40459;SDS011;26164;51.138;16.952;2022-12-18T10:53:04;63.35;;;21.35;;
40459;SDS011;26164;51.138;16.952;2022-12-18T10:55:34;52.55;;;20.27;;
40459;SDS011;26164;51.138;16.952;2022-12-18T10:58:16;62.55;;;23.23;;
40459;SDS011;26164;51.138;16.952;2022-12-18T11:06:05;64.85;;;23.42;;
40459;SDS011;26164;51.138;16.952;2022-12-18T11:08:33;67.68;;;24.98;;
40459;SDS011;26164;51.138;16.952;2022-12-18T11:10:59;57.33;;;22.27;;
40459;SDS011;26164;51.138;16.952;2022-12-18T11:13:26;74.28;;;24.17;;
40459;SDS011;26164;51.138;16.952;2022-12-18T11:15:55;64.38;;;23.10;;
40459;SDS011;26164;51.138;16.952;2022-12-18T11:18:33;70.63;;;23.30;;
40459;SDS011;26164;51.138;16.952;2022-12-18T11:21:08;62.95;;;21.85;;
40459;SDS011;26164;51.138;16.952;2022-12-18T11:23:37;67.47;;;22.60;;
40459;SDS011;26164;51.138;16.952;2022-12-18T11:26:17;70.82;;;26.35;;
40459;SDS011;26164;51.138;16.952;2022-12-18T11:28:44;72.57;;;24.15;;
40459;SDS011;26164;51.138;16.952;2022-12-18T11:31:24;69.03;;;24.48;;
40459;SDS011;26164;51.138;16.952;2022-12-18T11:36:43;65.57;;;23.77;;
40459;SDS011;26164;51.138;16.952;2022-12-18T11:39:15;62.83;;;21.65;;
40459;SDS011;26164;51.138;16.952;2022-12-18T11:41:47;63.08;;;22.67;;
40459;SDS011;26164;51.138;16.952;2022-12-18T11:49:58;55.72;;;19.23;;
40459;SDS011;26164;51.138;16.952;2022-12-18T11:52:47;53.65;;;18.45;;
40459;SDS011;26164;51.138;16.952;2022-12-18T12:11:48;48.97;;;18.52;;
40459;SDS011;26164;51.138;16.952;2022-12-18T12:15:03;64.18;;;21.90;;
40459;SDS011;26164;51.138;16.952;2022-12-18T12:17:51;98.50;;;27.92;;
40459;SDS011;26164;51.138;16.952;2022-12-18T12:20:33;63.80;;;21.55;;
40459;SDS011;26164;51.138;16.952;2022-12-18T12:23:03;57.92;;;21.48;;
40459;SDS011;26164;51.138;16.952;2022-12-18T12:25:46;58.80;;;22.33;;
40459;SDS011;26164;51.138;16.952;2022-12-18T12:31:50;58.70;;;21.88;;
40459;SDS011;26164;51.138;16.952;2022-12-18T12:34:31;61.05;;;21.42;;
40459;SDS011;26164;51.138;16.952;2022-12-18T12:39:31;64.75;;;24.02;;
40459;SDS011;26164;51.138;16.952;2022-12-18T12:42:04;67.72;;;23.42;;
40459;SDS011;26164;51.138;16.952;2022-12-18T12:44:55;72.38;;;22.80;;
40459;SDS011;26164;51.138;16.952;2022-12-18T12:47:32;72.63;;;23.92;;
40459;SDS011;26164;51.138;16.952;2022-12-18T12:50:05;71.60;;;25.10;;
40459;SDS011;26164;51.138;16.952;2022-12-18T12:52:50;55.95;;;19.02;;
40459;SDS011;26164;51.138;16.952;2022-12-18T12:55:22;51.83;;;17.30;;
40459;SDS011;26164;51.138;16.952;2022-12-18T13:00:31;77.15;;;24.13;;
40459;SDS011;26164;51.138;16.952;2022-12-18T13:06:00;64.78;;;23.58;;
40459;SDS011;26164;51.138;16.952;2022-12-18T13:08:50;64.90;;;24.08;;
40459;SDS011;26164;51.138;16.952;2022-12-18T13:11:54;73.10;;;26.05;;
40459;SDS011;26164;51.138;16.952;2022-12-18T13:14:33;76.43;;;25.20;;
40459;SDS011;26164;51.138;16.952;2022-12-18T13:17:16;71.15;;;24.80;;
40459;SDS011;26164;51.138;16.952;2022-12-18T13:22:22;77.20;;;26.73;;
40459;SDS011;26164;51.138;16.952;2022-12-18T13:24:49;81.85;;;26.35;;
40459;SDS011;26164;51.138;16.952;2022-12-18T13:38:22;77.55;;;27.48;;
40459;SDS011;26164;51.138;16.952;2022-12-18T13:40:58;80.72;;;25.15;;
40459;SDS011;26164;51.138;16.952;2022-12-18T13:46:19;84.70;;;28.73;;
40459;SDS011;26164;51.138;16.952;2022-12-18T13:51:17;81.65;;;24.25;;
40459;SDS011;26164;51.138;16.952;2022-12-18T13:53:56;79.97;;;27.05;;
40459;SDS011;26164;51.138;16.952;2022-12-18T13:56:31;68.20;;;21.23;;
40459;SDS011;26164;51.138;16.952;2022-12-18T14:01:56;82.47;;;28.88;;
40459;SDS011;26164;51.138;16.952;2022-12-18T14:06:51;87.82;;;29.25;;
40459;SDS011;26164;51.138;16.952;2022-12-18T14:09:23;90.47;;;28.10;;
40459;SDS011;26164;51.138;16.952;2022-12-18T14:11:51;77.90;;;27.20;;
40459;SDS011;26164;51.138;16.952;2022-12-18T14:14:40;78.18;;;26.27;;
40459;SDS011;26164;51.138;16.952;2022-12-18T14:17:11;79.10;;;27.23;;
40459;SDS011;26164;51.138;16.952;2022-12-18T14:19:46;78.28;;;25.25;;
40459;SDS011;26164;51.138;16.952;2022-12-18T14:22:15;88.72;;;26.23;;
40459;SDS011;26164;51.138;16.952;2022-12-18T14:24:46;80.25;;;27.48;;
40459;SDS011;26164;51.138;16.952;2022-12-18T14:27:31;77.47;;;26.88;;
40459;SDS011;26164;51.138;16.952;2022-12-18T14:29:56;80.95;;;27.95;;
40459;SDS011;26164;51.138;16.952;2022-12-18T14:32:23;77.18;;;26.20;;
40459;SDS011;26164;51.138;16.952;2022-12-18T14:34:53;76.13;;;24.17;;
40459;SDS011;26164;51.138;16.952;2022-12-18T14:37:27;79.53;;;24.42;;
40459;SDS011;26164;51.138;16.952;2022-12-18T14:39:59;83.28;;;27.08;;
40459;SDS011;26164;51.138;16.952;2022-12-18T14:42:30;83.80;;;26.90;;
40459;SDS011;26164;51.138;16.952;2022-12-18T14:48:06;80.93;;;26.45;;
40459;SDS011;26164;51.138;16.952;2022-12-18T14:50:33;89.47;;;26.57;;
40459;SDS011;26164;51.138;16.952;2022-12-18T14:53:00;81.88;;;27.58;;
40459;SDS011;26164;51.138;16.952;2022-12-18T14:55:47;84.88;;;27.70;;
40459;SDS011;26164;51.138;16.952;2022-12-18T14:58:15;82.32;;;25.08;;
40459;SDS011;26164;51.138;16.952;2022-12-18T15:00:43;79.18;;;27.08;;
40459;SDS011;26164;51.138;16.952;2022-12-18T15:03:10;80.10;;;25.13;;
40459;SDS011;26164;51.138;16.952;2022-12-18T15:05:36;72.97;;;24.17;;
40459;SDS011;26164;51.138;16.952;2022-12-18T15:08:30;90.03;;;27.90;;
40459;SDS011;26164;51.138;16.952;2022-12-18T15:11:03;90.30;;;28.55;;
40459;SDS011;26164;51.138;16.952;2022-12-18T15:13:43;89.25;;;27.33;;
40459;SDS011;26164;51.138;16.952;2022-12-18T15:16:22;92.00;;;28.65;;
40459;SDS011;26164;51.138;16.952;2022-12-18T15:18:49;97.32;;;31.73;;
40459;SDS011;26164;51.138;16.952;2022-12-18T15:21:30;99.35;;;31.77;;
40459;SDS011;26164;51.138;16.952;2022-12-18T15:24:26;89.47;;;29.73;;
40459;SDS011;26164;51.138;16.952;2022-12-18T15:26:56;95.90;;;30.58;;
40459;SDS011;26164;51.138;16.952;2022-12-18T15:29:26;94.35;;;31.42;;
40459;SDS011;26164;51.138;16.952;2022-12-18T15:32:18;88.15;;;29.65;;
40459;SDS011;26164;51.138;16.952;2022-12-18T15:38:03;88.72;;;29.45;;
40459;SDS011;26164;51.138;16.952;2022-12-18T15:40:44;102.03;;;30.48;;
40459;SDS011;26164;51.138;16.952;2022-12-18T15:43:25;99.43;;;29.55;;
40459;SDS011;26164;51.138;16.952;2022-12-18T15:46:23;96.22;;;28.70;;
40459;SDS011;26164;51.138;16.952;2022-12-18T15:49:25;85.63;;;27.60;;
40459;SDS011;26164;51.138;16.952;2022-12-18T15:52:08;108.32;;;33.58;;
40459;SDS011;26164;51.138;16.952;2022-12-18T15:54:54;111.20;;;35.10;;
40459;SDS011;26164;51.138;16.952;2022-12-18T15:57:56;95.32;;;29.30;;
40459;SDS011;26164;51.138;16.952;2022-12-18T16:00:51;105.45;;;33.90;;
40459;SDS011;26164;51.138;16.952;2022-12-18T16:03:34;101.30;;;32.55;;
40459;SDS011;26164;51.138;16.952;2022-12-18T16:06:15;102.45;;;32.30;;
40459;SDS011;26164;51.138;16.952;2022-12-18T16:08:56;97.03;;;31.30;;
40459;SDS011;26164;51.138;16.952;2022-12-18T16:11:39;103.93;;;33.47;;
40459;SDS011;26164;51.138;16.952;2022-12-18T16:14:30;104.32;;;33.50;;
40459;SDS011;26164;51.138;16.952;2022-12-18T16:17:40;111.05;;;34.70;;
40459;SDS011;26164;51.138;16.952;2022-12-18T16:20:23;117.65;;;36.15;;
40459;SDS011;26164;51.138;16.952;2022-12-18T16:23:05;118.53;;;36.25;;
40459;SDS011;26164;51.138;16.952;2022-12-18T16:25:46;111.43;;;36.17;;
40459;SDS011;26164;51.138;16.952;2022-12-18T16:28:27;128.57;;;35.97;;
40459;SDS011;26164;51.138;16.952;2022-12-18T16:31:11;117.00;;;36.67;;
40459;SDS011;26164;51.138;16.952;2022-12-18T16:34:10;126.10;;;36.92;;
40459;SDS011;26164;51.138;16.952;2022-12-18T16:37:13;119.57;;;36.63;;
40459;SDS011;26164;51.138;16.952;2022-12-18T16:39:55;124.47;;;34.90;;